createdAt,value
2019-01-27T00:02:42.463Z,20.95
2019-01-27T00:07:48.340Z,21.05
2019-01-27T00:13:26.405Z,21.07
2019-01-27T00:18:57.271Z,21.06
2019-01-27T00:24:01.492Z,21.10
2019-01-27T00:29:06.293Z,21.10
2019-01-27T00:34:10.546Z,21.10
2019-01-27T00:39:16.470Z,21.07
2019-01-27T00:44:20.524Z,21.12
2019-01-27T00:49:24.765Z,21.12
2019-01-27T00:54:28.930Z,21.12
2019-01-27T00:59:32.981Z,21.13
2019-01-27T01:04:37.149Z,21.06
2019-01-27T01:09:41.555Z,21.17
2019-01-27T01:14:45.783Z,21.18
2019-01-27T01:19:49.975Z,21.19
2019-01-27T01:24:54.715Z,21.19
2019-01-27T01:29:58.822Z,21.16
2019-01-27T01:35:03.294Z,21.16
2019-01-27T01:40:09.823Z,21.13
2019-01-27T01:45:17.226Z,21.16
2019-01-27T01:50:21.647Z,21.14
2019-01-27T01:55:26.027Z,21.17
2019-01-27T02:00:30.915Z,21.16
2019-01-27T02:05:35.232Z,21.15
2019-01-27T02:10:39.458Z,21.15
2019-01-27T02:16:08.314Z,21.17
2019-01-27T02:21:12.510Z,21.07
2019-01-27T02:26:16.689Z,21.07
2019-01-27T02:31:20.877Z,21.11
2019-01-27T02:36:24.897Z,21.11
2019-01-27T02:41:29.094Z,21.17
2019-01-27T02:46:33.115Z,21.19
2019-01-27T02:51:37.116Z,21.14
2019-01-27T02:56:41.305Z,21.06
2019-01-27T03:01:45.402Z,21.14
2019-01-27T03:06:57.217Z,21.16
2019-01-27T03:12:01.392Z,21.14
2019-01-27T03:17:07.290Z,21.14
2019-01-27T03:22:11.454Z,21.14
2019-01-27T03:27:15.567Z,21.14
2019-01-27T03:32:19.658Z,21.05
2019-01-27T03:37:23.755Z,21.05
2019-01-27T03:42:27.840Z,21.13
2019-01-27T03:47:31.866Z,21.13
2019-01-27T03:52:35.983Z,21.13
2019-01-27T03:57:40.064Z,21.12
2019-01-27T04:02:44.182Z,21.11
2019-01-27T04:07:48.369Z,21.12
2019-01-27T04:12:52.490Z,21.12
2019-01-27T04:17:56.651Z,21.13
2019-01-27T04:23:00.870Z,21.13
2019-01-27T04:28:05.859Z,21.13
2019-01-27T04:33:09.900Z,21.10
2019-01-27T04:38:13.915Z,21.10
2019-01-27T04:43:17.967Z,21.11
2019-01-27T04:48:22.075Z,21.11
2019-01-27T04:53:26.205Z,21.10
2019-01-27T04:58:30.239Z,21.11
2019-01-27T05:03:57.386Z,21.10
2019-01-27T05:09:01.423Z,21.09
2019-01-27T05:14:05.710Z,21.02
2019-01-27T05:19:09.832Z,21.02
2019-01-27T05:24:13.891Z,21.08
2019-01-27T05:29:17.974Z,21.09
2019-01-27T05:34:22.013Z,21.02
2019-01-27T05:39:26.018Z,21.09
2019-01-27T05:44:30.184Z,21.09
2019-01-27T05:49:34.199Z,21.07
2019-01-27T05:54:38.214Z,21.07
2019-01-27T05:59:42.406Z,21.07
2019-01-27T06:04:46.518Z,21.07
2019-01-27T06:09:50.612Z,21.07
2019-01-27T06:14:54.654Z,20.99
2019-01-27T06:19:58.847Z,21.00
2019-01-27T06:25:03.398Z,21.08
2019-01-27T06:30:11.198Z,21.08
2019-01-27T06:35:15.290Z,21.07
2019-01-27T06:40:19.388Z,21.00
2019-01-27T06:45:57.362Z,21.08
2019-01-27T06:51:01.374Z,21.06
2019-01-27T06:56:06.174Z,20.97
2019-01-27T07:01:18.888Z,20.98
2019-01-27T07:06:33.727Z,20.94
2019-01-27T07:11:56.756Z,20.79
2019-01-27T07:17:09.189Z,20.73
2019-01-27T07:22:41.251Z,20.78
2019-01-27T07:28:03.233Z,20.74
2019-01-27T07:33:26.397Z,20.69
2019-01-27T07:38:36.920Z,20.69
2019-01-27T07:43:50.865Z,20.67
2019-01-27T07:49:14.436Z,20.49
2019-01-27T07:54:46.317Z,20.55
2019-01-27T08:00:15.720Z,20.51
2019-01-27T08:05:25.538Z,20.50
2019-01-27T08:10:35.466Z,16.57
2019-01-27T08:15:54.491Z,14.62
2019-01-27T08:21:20.624Z,17.63
2019-01-27T08:26:42.147Z,19.37
2019-01-27T08:32:01.834Z,19.37
2019-01-27T08:37:30.938Z,20.79
2019-01-27T08:42:52.979Z,21.11
2019-01-27T08:47:57.263Z,21.08
2019-01-27T08:53:01.558Z,21.05
2019-01-27T08:58:06.035Z,20.91
2019-01-27T09:03:22.746Z,20.79
2019-01-27T09:08:51.683Z,20.79
2019-01-27T09:14:06.998Z,20.76
2019-01-27T09:19:18.947Z,20.76
2019-01-27T09:24:42.046Z,20.64
2019-01-27T09:30:08.995Z,20.57
2019-01-27T09:35:38.023Z,20.57
2019-01-27T09:41:01.206Z,21.03
2019-01-27T09:46:21.577Z,21.03
2019-01-27T09:51:40.164Z,21.19
2019-01-27T09:57:03.177Z,21.16
2019-01-27T10:02:35.501Z,20.91
2019-01-27T10:07:47.320Z,21.01
2019-01-27T10:13:04.814Z,21.01
2019-01-27T10:18:25.245Z,20.68
2019-01-27T10:23:48.411Z,20.69
2019-01-27T10:29:07.893Z,20.73
2019-01-27T10:34:20.413Z,20.86
2019-01-27T10:39:46.213Z,21.20
2019-01-27T10:45:21.429Z,21.20
2019-01-27T10:51:00.092Z,21.24
2019-01-27T10:56:36.141Z,21.09
2019-01-27T11:01:58.234Z,21.03
2019-01-27T11:07:27.605Z,20.95
2019-01-27T11:13:03.071Z,20.88
2019-01-27T11:18:35.512Z,20.85
2019-01-27T11:24:07.678Z,20.80
2019-01-27T11:29:19.233Z,20.75
2019-01-27T11:34:46.652Z,20.73
2019-01-27T11:40:03.245Z,20.91
2019-01-27T11:45:36.835Z,21.19
2019-01-27T11:50:45.463Z,21.19
2019-01-27T11:55:50.770Z,21.19
2019-01-27T12:00:59.766Z,21.17
2019-01-27T12:06:05.663Z,21.05
2019-01-27T12:11:10.213Z,21.08
2019-01-27T12:16:14.365Z,21.06
2019-01-27T12:21:18.870Z,20.88
2019-01-27T12:26:23.903Z,20.88
2019-01-27T12:31:28.724Z,20.98
2019-01-27T12:36:33.864Z,20.80
2019-01-27T12:41:38.947Z,20.73
2019-01-27T12:46:44.651Z,20.74
2019-01-27T12:56:59.172Z,20.71
2019-01-27T13:02:04.074Z,20.86
2019-01-27T13:07:15.234Z,20.84
2019-01-27T13:12:23.626Z,20.99
2019-01-27T13:17:28.510Z,20.92
2019-01-27T13:22:33.225Z,20.94
2019-01-27T13:27:38.071Z,20.83
2019-01-27T13:32:43.073Z,20.83
2019-01-27T13:37:48.867Z,20.57
2019-01-27T13:42:54.148Z,20.34
2019-01-27T13:47:59.412Z,20.34
2019-01-27T13:53:04.405Z,20.27
2019-01-27T13:58:09.283Z,20.53
2019-01-27T14:03:14.404Z,20.64
2019-01-27T14:08:19.440Z,20.63
2019-01-27T14:13:24.275Z,20.66
2019-01-27T14:18:29.188Z,20.68
2019-01-27T14:23:33.772Z,20.63
2019-01-27T14:28:38.788Z,20.57
2019-01-27T14:33:43.453Z,20.51
2019-01-27T14:38:47.970Z,20.52
2019-01-27T14:43:52.836Z,20.32
2019-01-27T14:48:57.640Z,20.44
2019-01-27T14:54:02.749Z,20.47
2019-01-27T14:59:08.121Z,20.46
2019-01-27T15:04:12.648Z,20.42
2019-01-27T15:09:17.638Z,20.39
2019-01-27T15:14:22.510Z,20.39
2019-01-27T15:19:27.661Z,20.41
2019-01-27T15:24:32.886Z,20.31
2019-01-27T15:29:37.832Z,20.48
2019-01-27T15:34:42.947Z,20.46
2019-01-27T15:39:48.212Z,20.60
2019-01-27T15:44:53.822Z,20.60
2019-01-27T15:49:58.578Z,20.76
2019-01-27T15:55:03.801Z,20.62
2019-01-27T16:00:12.733Z,20.60
2019-01-27T16:05:19.767Z,20.61
2019-01-27T16:10:25.657Z,20.75
2019-01-27T16:15:31.960Z,20.79
2019-01-27T16:20:36.717Z,20.66
2019-01-27T16:25:42.013Z,20.80
2019-01-27T16:31:02.876Z,20.73
2019-01-27T16:36:07.614Z,20.73
2019-01-27T16:41:13.041Z,20.67
2019-01-27T16:46:18.338Z,20.65
2019-01-27T16:51:23.405Z,20.65
2019-01-27T16:56:28.290Z,20.76
2019-01-27T17:01:33.250Z,20.80
2019-01-27T17:06:38.337Z,20.80
2019-01-27T17:11:43.540Z,20.95
2019-01-27T17:16:50.145Z,21.65
2019-01-27T17:21:54.943Z,21.65
2019-01-27T17:27:00.580Z,22.30
2019-01-27T17:32:05.761Z,22.46
2019-01-27T17:37:10.517Z,22.52
2019-01-27T17:42:15.489Z,22.49
2019-01-27T17:52:44.502Z,22.63
2019-01-27T17:58:13.624Z,22.64
2019-01-27T18:03:40.064Z,22.64
2019-01-27T18:09:21.719Z,22.47
2019-01-27T18:14:31.066Z,22.53
2019-01-27T18:19:38.228Z,22.55
2019-01-27T18:24:43.190Z,22.72
2019-01-27T18:29:48.375Z,22.73
2019-01-27T18:34:53.771Z,22.65
2019-01-27T18:40:06.807Z,22.55
2019-01-27T18:45:14.328Z,22.57
2019-01-27T18:50:20.761Z,22.51
2019-01-27T18:55:49.923Z,22.49
2019-01-27T19:01:13.217Z,22.57
2019-01-27T19:06:28.398Z,22.67
2019-01-27T19:11:39.388Z,22.65
2019-01-27T19:17:09.049Z,22.75
2019-01-27T19:22:35.466Z,22.66
2019-01-27T19:28:14.011Z,22.63
2019-01-27T19:33:30.653Z,22.65
2019-01-27T19:38:54.745Z,22.57
2019-01-27T19:44:14.211Z,22.57
2019-01-27T19:49:43.678Z,22.66
2019-01-27T19:55:05.749Z,22.66
2019-01-27T20:00:36.370Z,22.58
2019-01-27T20:05:58.252Z,22.61
2019-01-27T20:11:14.608Z,22.49
2019-01-27T20:16:47.086Z,22.37
2019-01-27T20:22:10.671Z,22.27
2019-01-27T20:27:52.214Z,22.27
2019-01-27T20:33:14.515Z,22.11
2019-01-27T20:38:40.939Z,21.87
2019-01-27T20:44:04.315Z,21.82
2019-01-27T20:49:27.833Z,21.82
2019-01-27T20:54:55.903Z,21.74
2019-01-27T21:00:17.990Z,21.72
2019-01-27T21:05:30.429Z,21.62
2019-01-27T21:10:52.970Z,21.60
2019-01-27T21:16:05.242Z,21.60
2019-01-27T21:21:10.953Z,21.57
2019-01-27T21:26:16.660Z,21.49
2019-01-27T21:31:22.523Z,21.47
2019-01-27T21:36:27.962Z,21.47
2019-01-27T21:41:36.915Z,21.42
2019-01-27T21:46:42.588Z,21.37
2019-01-27T21:51:47.722Z,21.38
2019-01-27T21:56:57.142Z,21.38
2019-01-27T22:02:02.009Z,21.37
2019-01-27T22:07:10.166Z,21.33
2019-01-27T22:12:15.115Z,21.34
2019-01-27T22:17:19.985Z,21.31
2019-01-27T22:22:24.713Z,21.31
2019-01-27T22:27:29.378Z,21.31
2019-01-27T22:32:34.125Z,21.26
2019-01-27T22:37:38.525Z,21.25
2019-01-27T22:42:42.949Z,21.20
2019-01-27T22:47:47.384Z,21.24
2019-01-27T22:52:54.000Z,21.23
2019-01-27T22:57:58.433Z,21.25
2019-01-27T23:03:03.037Z,21.22
2019-01-27T23:08:07.596Z,21.28
2019-01-27T23:13:12.414Z,21.16
2019-01-27T23:18:16.952Z,21.22
2019-01-27T23:23:21.539Z,21.14
2019-01-27T23:28:26.132Z,21.18
2019-01-27T23:33:30.694Z,21.14
2019-01-27T23:38:35.196Z,21.21
2019-01-27T23:43:39.726Z,21.21
2019-01-27T23:48:44.130Z,21.24
2019-01-27T23:53:49.457Z,21.20
2019-01-27T23:58:57.241Z,21.14
